createdAt,value
2023-01-18T00:01:46.936Z,1.87
2023-01-18T00:04:49.289Z,2.25
2023-01-18T00:07:54.883Z,2.40
2023-01-18T00:11:07.081Z,2.97
2023-01-18T00:14:09.473Z,3.25
2023-01-18T00:17:11.876Z,3.45
2023-01-18T00:20:15.147Z,3.35
2023-01-18T00:23:17.446Z,2.70
2023-01-18T00:26:20.210Z,3.08
2023-01-18T00:29:22.533Z,3.97
2023-01-18T00:32:25.403Z,3.77
2023-01-18T00:35:27.863Z,3.53
2023-01-18T00:38:30.929Z,3.70
2023-01-18T00:41:33.309Z,3.78
2023-01-18T00:44:35.665Z,4.10
2023-01-18T00:47:38.006Z,2.65
2023-01-18T00:50:40.373Z,3.28
2023-01-18T00:53:46.349Z,2.93
2023-01-18T00:56:48.769Z,2.80
2023-01-18T00:59:51.185Z,3.83
2023-01-18T01:02:54.014Z,2.50
2023-01-18T01:06:15.296Z,2.72
2023-01-18T01:09:25.785Z,2.60
2023-01-18T01:12:46.504Z,2.28
2023-01-18T01:16:07.217Z,3.67
2023-01-18T01:19:28.026Z,2.97
2023-01-18T01:22:48.689Z,3.20
2023-01-18T01:26:09.009Z,2.63
2023-01-18T01:29:11.526Z,2.78
2023-01-18T01:32:13.905Z,3.50
2023-01-18T01:35:16.272Z,3.07
2023-01-18T01:38:18.589Z,3.55
2023-01-18T01:41:26.644Z,2.47
2023-01-18T01:44:30.718Z,3.50
2023-01-18T01:47:41.282Z,3.05
2023-01-18T01:50:43.693Z,3.25
2023-01-18T01:53:48.791Z,2.90
2023-01-18T01:56:56.396Z,2.43
2023-01-18T01:59:58.701Z,2.40
2023-01-18T02:03:09.311Z,2.28
2023-01-18T02:06:32.029Z,2.87
2023-01-18T02:09:34.439Z,2.40
2023-01-18T02:12:40.096Z,3.00
2023-01-18T02:16:23.465Z,2.72
2023-01-18T02:19:50.743Z,2.25
2023-01-18T02:23:17.272Z,2.90
2023-01-18T02:26:25.448Z,2.58
2023-01-18T02:29:37.440Z,2.57
2023-01-18T02:33:06.508Z,2.63
2023-01-18T02:36:09.043Z,2.60
2023-01-18T02:39:53.364Z,3.23
2023-01-18T02:43:19.320Z,2.63
2023-01-18T02:46:33.707Z,2.58
2023-01-18T02:49:36.252Z,2.72
2023-01-18T02:52:47.367Z,2.92
2023-01-18T02:56:08.708Z,2.65
2023-01-18T02:59:22.811Z,3.22
2023-01-18T03:02:26.452Z,3.40
2023-01-18T03:05:31.007Z,3.15
2023-01-18T03:08:44.241Z,2.80
2023-01-18T03:11:57.868Z,3.30
2023-01-18T03:15:26.743Z,3.50
2023-01-18T03:19:04.982Z,3.50
2023-01-18T03:22:07.372Z,3.25
2023-01-18T03:25:13.390Z,3.17
2023-01-18T03:28:39.481Z,3.13
2023-01-18T03:32:24.721Z,3.08
2023-01-18T03:35:29.466Z,2.53
2023-01-18T03:38:34.007Z,3.70
2023-01-18T03:41:43.410Z,2.65
2023-01-18T03:44:58.160Z,3.20
2023-01-18T03:48:01.858Z,2.65
2023-01-18T03:51:15.575Z,2.70
2023-01-18T03:54:28.618Z,2.88
2023-01-18T03:57:35.687Z,3.33
2023-01-18T04:00:39.442Z,3.80
2023-01-18T04:03:41.831Z,2.72
2023-01-18T04:06:44.198Z,2.50
2023-01-18T04:09:46.984Z,3.35
2023-01-18T04:12:49.477Z,2.65
2023-01-18T04:15:51.863Z,2.80
2023-01-18T04:18:54.356Z,2.88
2023-01-18T04:21:57.122Z,2.88
2023-01-18T04:24:59.444Z,2.63
2023-01-18T04:28:01.821Z,2.75
2023-01-18T04:31:04.361Z,2.75
2023-01-18T04:34:06.764Z,2.45
2023-01-18T04:37:09.168Z,2.37
2023-01-18T04:40:12.223Z,3.50
2023-01-18T04:43:14.557Z,3.50
2023-01-18T04:46:16.967Z,2.97
2023-01-18T04:49:19.560Z,3.63
2023-01-18T04:52:22.002Z,3.30
2023-01-18T04:55:24.457Z,2.92
2023-01-18T04:58:26.831Z,2.72
2023-01-18T05:01:29.787Z,3.72
2023-01-18T05:04:32.313Z,3.65
2023-01-18T05:07:34.760Z,3.83
2023-01-18T05:10:37.123Z,5.95
2023-01-18T05:13:40.939Z,5.30
2023-01-18T05:16:43.316Z,5.50
2023-01-18T05:19:46.835Z,14.30
2023-01-18T05:22:49.249Z,22.83
2023-01-18T05:25:56.027Z,14.55
2023-01-18T05:28:58.756Z,7.25
2023-01-18T05:32:01.120Z,6.53
2023-01-18T05:35:04.835Z,10.10
2023-01-18T05:38:07.270Z,38.07
2023-01-18T05:41:09.765Z,18.42
2023-01-18T05:44:12.188Z,9.55
2023-01-18T05:47:14.560Z,5.73
2023-01-18T05:50:16.922Z,10.02
2023-01-18T05:53:21.573Z,18.30
2023-01-18T05:56:24.062Z,30.00
2023-01-18T05:59:26.530Z,13.90
2023-01-18T06:02:29.196Z,11.40
2023-01-18T06:11:20.685Z,19.00
2023-01-18T06:14:23.239Z,19.10
2023-01-18T06:17:25.589Z,19.88
2023-01-18T06:20:30.412Z,23.40
2023-01-18T06:23:32.850Z,19.55
2023-01-18T06:26:35.396Z,24.50
2023-01-18T06:29:37.731Z,15.73
2023-01-18T06:32:40.185Z,17.55
2023-01-18T06:35:43.753Z,15.05
2023-01-18T06:38:46.252Z,12.55
2023-01-18T06:41:48.957Z,24.93
2023-01-18T06:44:51.397Z,29.67
2023-01-18T06:47:53.786Z,25.05
2023-01-18T06:50:57.632Z,21.53
2023-01-18T06:54:00.112Z,14.07
2023-01-18T06:57:02.589Z,14.65
2023-01-18T07:00:06.911Z,15.98
2023-01-18T07:03:10.657Z,14.00
2023-01-18T07:06:13.244Z,14.18
2023-01-18T07:09:15.847Z,15.80
2023-01-18T07:12:18.712Z,9.53
2023-01-18T07:15:22.552Z,10.88
2023-01-18T07:18:26.237Z,11.68
2023-01-18T07:21:29.821Z,13.90
2023-01-18T07:24:32.272Z,11.75
2023-01-18T07:27:34.727Z,15.00
2023-01-18T07:30:37.233Z,18.55
2023-01-18T07:33:39.729Z,15.30
2023-01-18T07:36:42.171Z,7.57
2023-01-18T07:39:44.660Z,8.57
2023-01-18T07:42:56.929Z,12.87
2023-01-18T07:46:00.805Z,8.40
2023-01-18T07:49:05.767Z,8.38
2023-01-18T07:52:08.249Z,7.73
2023-01-18T07:55:10.857Z,9.40
2023-01-18T07:58:13.610Z,7.00
2023-01-18T08:01:19.390Z,6.45
2023-01-18T08:04:22.528Z,5.05
2023-01-18T08:07:25.784Z,6.22
2023-01-18T08:10:29.813Z,3.00
2023-01-18T08:13:32.669Z,2.50
2023-01-18T08:16:35.051Z,3.38
2023-01-18T08:19:37.726Z,3.22
2023-01-18T08:22:48.768Z,3.10
2023-01-18T08:25:51.275Z,2.28
2023-01-18T08:28:53.921Z,3.58
2023-01-18T08:31:56.543Z,2.72
2023-01-18T08:35:00.521Z,2.45
2023-01-18T08:38:03.061Z,3.33
2023-01-18T08:41:05.683Z,2.83
2023-01-18T08:44:08.370Z,2.40
2023-01-18T08:47:11.650Z,2.42
2023-01-18T08:50:14.062Z,17.20
2023-01-18T08:53:16.844Z,2.13
2023-01-18T08:56:20.358Z,2.97
2023-01-18T08:59:23.900Z,3.50
2023-01-18T09:02:26.329Z,2.50
2023-01-18T09:05:28.795Z,1.75
2023-01-18T09:08:31.934Z,1.70
2023-01-18T09:11:34.322Z,2.70
2023-01-18T09:14:36.764Z,2.67
2023-01-18T09:17:39.340Z,4.65
2023-01-18T09:20:43.574Z,3.90
2023-01-18T09:23:49.125Z,3.40
2023-01-18T09:26:52.485Z,1.52
2023-01-18T09:29:55.209Z,3.75
2023-01-18T09:32:58.878Z,1.73
2023-01-18T09:36:04.480Z,2.10
2023-01-18T09:39:07.323Z,3.78
2023-01-18T09:42:28.494Z,6.53
2023-01-18T09:45:34.340Z,3.00
2023-01-18T09:48:40.900Z,2.80
2023-01-18T09:52:08.033Z,2.20
2023-01-18T09:55:16.802Z,1.40
2023-01-18T09:58:52.365Z,1.38
2023-01-18T10:01:56.290Z,1.90
2023-01-18T10:05:05.320Z,0.60
2023-01-18T10:08:15.152Z,0.43
2023-01-18T10:11:31.692Z,0.20
2023-01-18T10:14:49.072Z,0.20
2023-01-18T10:17:56.630Z,0.40
2023-01-18T10:21:04.764Z,2.00
2023-01-18T10:24:41.062Z,2.05
2023-01-18T10:27:58.420Z,1.60
2023-01-18T10:31:23.971Z,1.42
2023-01-18T10:34:32.998Z,1.23
2023-01-18T10:37:45.433Z,0.85
2023-01-18T10:40:55.121Z,1.75
2023-01-18T10:43:57.617Z,1.30
2023-01-18T10:47:01.282Z,1.02
2023-01-18T10:50:15.376Z,2.20
2023-01-18T10:53:23.836Z,0.73
2023-01-18T10:56:28.696Z,0.40
2023-01-18T10:59:38.058Z,1.00
2023-01-18T11:02:42.198Z,1.35
2023-01-18T11:05:46.039Z,0.60
2023-01-18T11:08:50.178Z,1.05
2023-01-18T11:12:10.865Z,0.70
2023-01-18T11:15:13.253Z,0.70
2023-01-18T11:18:17.625Z,0.52
2023-01-18T11:21:20.292Z,1.67
2023-01-18T11:24:27.870Z,1.05
2023-01-18T11:27:32.375Z,0.77
2023-01-18T11:30:35.000Z,0.60
2023-01-18T11:34:01.465Z,0.80
2023-01-18T11:37:18.327Z,0.88
2023-01-18T11:40:22.175Z,0.98
2023-01-18T11:43:27.955Z,1.30
2023-01-18T11:46:34.887Z,1.02
2023-01-18T11:49:45.907Z,0.85
2023-01-18T11:53:00.240Z,0.80
2023-01-18T11:56:14.972Z,1.40
2023-01-18T11:59:34.001Z,0.52
2023-01-18T12:02:57.578Z,1.03
2023-01-18T12:06:12.281Z,0.93
2023-01-18T12:09:54.056Z,1.13
2023-01-18T12:13:11.380Z,1.60
2023-01-18T12:16:19.757Z,1.10
2023-01-18T12:19:43.173Z,1.25
2023-01-18T12:22:51.292Z,1.55
2023-01-18T12:26:11.792Z,1.67
2023-01-18T12:29:39.505Z,1.02
2023-01-18T12:33:04.820Z,0.90
2023-01-18T12:36:27.533Z,1.23
2023-01-18T12:39:35.740Z,0.90
2023-01-18T12:43:19.522Z,1.08
2023-01-18T12:46:33.779Z,0.80
2023-01-18T12:49:43.772Z,0.73
2023-01-18T12:52:52.157Z,1.65
2023-01-18T12:55:55.861Z,0.70
2023-01-18T12:59:02.160Z,0.50
2023-01-18T13:02:26.738Z,1.70
2023-01-18T13:05:43.950Z,1.45
2023-01-18T13:08:55.078Z,1.67
2023-01-18T13:11:58.539Z,1.13
2023-01-18T13:15:35.895Z,1.25
2023-01-18T13:19:00.534Z,1.45
2023-01-18T13:22:06.182Z,0.60
2023-01-18T13:25:36.503Z,1.20
2023-01-18T13:28:39.037Z,1.10
2023-01-18T13:31:41.651Z,1.00
2023-01-18T13:34:48.543Z,0.95
2023-01-18T13:37:57.940Z,0.75
2023-01-18T13:41:03.994Z,0.80
2023-01-18T13:44:27.147Z,1.00
2023-01-18T13:47:35.548Z,1.77
2023-01-18T13:50:39.501Z,1.52
2023-01-18T13:53:49.973Z,1.50
2023-01-18T13:57:01.228Z,0.70
2023-01-18T14:00:05.613Z,0.77
2023-01-18T14:03:20.609Z,0.90
2023-01-18T14:06:34.216Z,0.80
2023-01-18T14:09:45.971Z,0.50
2023-01-18T14:12:51.571Z,1.43
2023-01-18T14:15:54.832Z,0.93
2023-01-18T14:19:17.544Z,1.55
2023-01-18T14:22:19.992Z,0.70
2023-01-18T14:25:46.692Z,1.33
2023-01-18T14:28:58.751Z,1.02
2023-01-18T14:32:05.239Z,1.40
2023-01-18T14:35:21.108Z,1.00
2023-01-18T14:38:24.747Z,1.13
2023-01-18T14:41:27.128Z,2.65
2023-01-18T14:44:56.868Z,2.10
2023-01-18T14:48:13.030Z,2.10
2023-01-18T14:51:18.736Z,2.45
2023-01-18T14:54:24.892Z,2.40
2023-01-18T14:57:27.375Z,1.80
2023-01-18T15:00:30.116Z,1.95
2023-01-18T15:03:32.589Z,1.80
2023-01-18T15:06:37.963Z,1.90
2023-01-18T15:09:42.364Z,2.38
2023-01-18T15:12:52.400Z,2.35
2023-01-18T15:15:59.429Z,2.90
2023-01-18T15:19:04.408Z,3.85
2023-01-18T15:22:10.948Z,6.00
2023-01-18T15:25:29.064Z,4.85
2023-01-18T15:28:35.755Z,5.28
2023-01-18T15:31:55.746Z,9.07
2023-01-18T15:34:59.521Z,14.20
2023-01-18T15:38:05.021Z,8.60
2023-01-18T15:41:12.030Z,17.15
2023-01-18T15:44:40.504Z,11.13
2023-01-18T15:47:48.194Z,3.30
2023-01-18T15:50:56.292Z,2.30
2023-01-18T15:53:58.675Z,2.10
2023-01-18T15:57:14.797Z,2.17
2023-01-18T16:00:38.110Z,11.88
2023-01-18T16:04:04.114Z,8.82
2023-01-18T16:07:25.317Z,4.50
2023-01-18T16:10:28.373Z,2.93
2023-01-18T16:13:42.769Z,2.28
2023-01-18T16:16:46.106Z,2.00
2023-01-18T16:19:51.912Z,2.43
2023-01-18T16:23:09.316Z,3.67
2023-01-18T16:26:14.374Z,5.75
2023-01-18T16:29:16.958Z,9.85
2023-01-18T16:32:30.647Z,10.77
2023-01-18T16:35:34.870Z,11.63
2023-01-18T16:38:37.556Z,22.80
2023-01-18T16:41:49.231Z,20.80
2023-01-18T16:44:52.986Z,19.20
2023-01-18T16:47:55.957Z,17.17
2023-01-18T16:51:01.759Z,14.57
2023-01-18T16:54:04.388Z,11.68
2023-01-18T16:57:07.078Z,13.10
2023-01-18T17:00:17.244Z,12.80
2023-01-18T17:03:19.611Z,19.77
2023-01-18T17:06:22.800Z,17.25
2023-01-18T17:09:28.076Z,14.63
2023-01-18T17:12:31.682Z,15.10
2023-01-18T17:15:34.908Z,12.25
2023-01-18T17:18:37.607Z,10.40
2023-01-18T17:21:41.395Z,8.73
2023-01-18T17:24:45.043Z,5.93
2023-01-18T17:27:48.971Z,6.38
2023-01-18T17:30:51.790Z,7.47
2023-01-18T17:33:54.547Z,7.50
2023-01-18T17:36:58.653Z,7.20
2023-01-18T17:40:16.337Z,5.90
2023-01-18T17:43:32.233Z,5.63
2023-01-18T17:46:36.115Z,5.57
2023-01-18T17:49:39.008Z,4.63
2023-01-18T17:52:41.447Z,6.90
2023-01-18T17:55:43.812Z,6.45
2023-01-18T17:58:48.280Z,9.85
2023-01-18T18:01:50.831Z,22.90
2023-01-18T18:04:55.269Z,14.88
2023-01-18T18:07:57.871Z,15.35
2023-01-18T18:11:00.756Z,8.05
2023-01-18T18:17:25.748Z,14.60
2023-01-18T18:20:28.386Z,16.35
2023-01-18T18:23:32.025Z,11.90
2023-01-18T18:26:34.818Z,23.30
2023-01-18T18:29:37.581Z,11.07
2023-01-18T18:32:40.232Z,11.70
2023-01-18T18:36:38.411Z,18.63
2023-01-18T18:43:03.234Z,11.63
2023-01-18T18:49:26.201Z,10.65
2023-01-18T18:52:28.641Z,8.88
2023-01-18T18:55:32.041Z,17.63
2023-01-18T18:58:37.168Z,17.67
2023-01-18T19:01:40.131Z,16.80
2023-01-18T19:04:42.789Z,15.82
2023-01-18T19:07:47.071Z,17.83
2023-01-18T19:10:51.319Z,16.65
2023-01-18T19:13:55.953Z,16.10
2023-01-18T19:17:00.073Z,15.87
2023-01-18T19:20:02.608Z,15.13
2023-01-18T19:23:05.343Z,15.15
2023-01-18T19:26:07.757Z,16.07
2023-01-18T19:29:10.694Z,17.42
2023-01-18T19:32:13.125Z,16.83
2023-01-18T19:35:16.382Z,17.75
2023-01-18T19:38:19.055Z,11.32
2023-01-18T19:41:22.723Z,7.03
2023-01-18T19:44:26.694Z,7.53
2023-01-18T19:47:29.296Z,9.87
2023-01-18T19:50:32.100Z,16.25
2023-01-18T19:53:34.747Z,10.30
2023-01-18T19:56:37.345Z,12.33
2023-01-18T19:59:40.123Z,18.92
2023-01-18T20:02:42.889Z,21.08
2023-01-18T20:05:45.583Z,21.60
2023-01-18T20:08:50.837Z,19.05
2023-01-18T20:11:53.336Z,14.00
2023-01-18T20:14:55.968Z,13.48
2023-01-18T20:17:59.070Z,13.00
2023-01-18T20:21:06.353Z,14.82
2023-01-18T20:24:09.411Z,10.40
2023-01-18T20:27:16.230Z,9.77
2023-01-18T20:30:20.182Z,8.80
2023-01-18T20:33:23.042Z,8.57
2023-01-18T20:36:25.692Z,9.82
2023-01-18T20:39:28.806Z,12.20
2023-01-18T20:42:31.352Z,17.77
2023-01-18T20:45:33.888Z,14.25
2023-01-18T20:48:37.377Z,17.23
2023-01-18T20:51:41.596Z,18.48
2023-01-18T20:54:44.364Z,18.50
2023-01-18T20:57:50.888Z,28.30
2023-01-18T21:00:54.607Z,12.63
2023-01-18T21:03:57.246Z,11.70
2023-01-18T21:06:59.837Z,11.95
2023-01-18T21:10:02.843Z,12.25
2023-01-18T21:13:09.291Z,11.75
2023-01-18T21:16:11.862Z,11.88
2023-01-18T21:19:14.373Z,12.87
2023-01-18T21:22:16.939Z,13.02
2023-01-18T21:25:19.477Z,11.40
2023-01-18T21:28:22.628Z,7.30
2023-01-18T21:31:25.083Z,7.85
2023-01-18T21:34:27.433Z,7.65
2023-01-18T21:37:32.654Z,7.72
2023-01-18T21:40:35.543Z,6.70
2023-01-18T21:43:56.169Z,6.22
2023-01-18T21:46:59.038Z,5.07
2023-01-18T21:50:19.808Z,4.87
2023-01-18T21:53:40.581Z,4.50
2023-01-18T21:56:46.473Z,4.43
2023-01-18T21:59:48.902Z,5.27
2023-01-18T22:02:51.400Z,10.48
2023-01-18T22:05:53.741Z,5.65
2023-01-18T22:08:56.344Z,4.82
2023-01-18T22:11:59.652Z,4.80
2023-01-18T22:15:03.029Z,4.80
2023-01-18T22:18:05.942Z,4.20
2023-01-18T22:21:08.375Z,4.53
2023-01-18T22:24:12.355Z,4.07
2023-01-18T22:27:14.702Z,4.40
2023-01-18T22:30:17.458Z,4.47
2023-01-18T22:33:19.976Z,4.70
2023-01-18T22:36:22.400Z,4.80
2023-01-18T22:39:25.382Z,4.82
2023-01-18T22:42:28.126Z,5.63
2023-01-18T22:45:30.501Z,5.10
2023-01-18T22:48:37.223Z,4.95
2023-01-18T22:51:39.677Z,4.83
2023-01-18T22:54:42.582Z,3.75
2023-01-18T22:57:44.948Z,4.43
2023-01-18T23:00:48.943Z,5.53
2023-01-18T23:03:53.499Z,4.72
2023-01-18T23:07:00.738Z,4.30
2023-01-18T23:10:03.483Z,4.20
2023-01-18T23:13:05.849Z,4.28
2023-01-18T23:16:29.184Z,3.35
2023-01-18T23:19:33.397Z,3.90
2023-01-18T23:22:36.048Z,4.80
2023-01-18T23:25:38.376Z,3.70
2023-01-18T23:28:41.493Z,3.35
2023-01-18T23:31:44.169Z,3.63
2023-01-18T23:34:47.807Z,3.40
2023-01-18T23:37:50.216Z,3.40
2023-01-18T23:41:14.130Z,3.53
2023-01-18T23:44:34.914Z,2.90
2023-01-18T23:47:55.538Z,2.63
2023-01-18T23:51:17.781Z,2.58
2023-01-18T23:54:20.240Z,2.10
2023-01-18T23:57:22.681Z,2.60
